Time;durP1;ratioP1;P1;durP2;ratioP2;P2;SDS_P1;SDS_P2;PMS_P1;PMS_P2;Temp;Humidity;BMP_temperature;BMP_pressure;BME280_temperature;BME280_humidity;BME280_pressure;Samples;Min_cycle;Max_cycle;Signal;HPM_P1;HPM_P2
2022/05/17 00:01:22;;;;;;;21.17;10.68;;;;;;;;;;5001555;28;20046;-78
2022/05/17 00:03:48;;;;;;;20.15;10.52;;;;;;;;;;4992717;28;20110;-78
2022/05/17 00:06:14;;;;;;;21.73;10.30;;;;;;;;;;5010862;28;20046;-77
2022/05/17 00:08:41;;;;;;;24.70;10.88;;;;;;;;;;5003264;28;20038;-77
2022/05/17 00:11:07;;;;;;;21.42;10.18;;;;;;;;;;5005263;28;20077;-77
2022/05/17 00:13:33;;;;;;;21.98;9.85;;;;;;;;;;5004341;28;20050;-77
2022/05/17 00:15:59;;;;;;;24.52;10.60;;;;;;;;;;5004298;28;20141;-77
2022/05/17 00:18:25;;;;;;;22.90;9.95;;;;;;;;;;5004564;28;20054;-77
2022/05/17 00:20:51;;;;;;;21.63;10.13;;;;;;;;;;5004419;28;20150;-78
2022/05/17 00:23:19;;;;;;;23.95;10.65;;;;;;;;;;5005715;28;20073;-77
2022/05/17 00:25:47;;;;;;;20.55;9.63;;;;;;;;;;5005709;28;20053;-77
2022/05/17 00:28:14;;;;;;;19.55;9.70;;;;;;;;;;4988010;28;20065;-78
2022/05/17 00:30:40;;;;;;;19.85;10.07;;;;;;;;;;5010461;28;20081;-78
2022/05/17 00:33:06;;;;;;;19.40;9.50;;;;;;;;;;4988294;28;20050;-77
2022/05/17 00:35:33;;;;;;;20.85;9.98;;;;;;;;;;5004667;28;20065;-79
2022/05/17 00:37:59;;;;;;;18.80;9.82;;;;;;;;;;4992171;28;20058;-78
2022/05/17 00:40:25;;;;;;;18.50;10.02;;;;;;;;;;5010268;28;20047;-77
2022/05/17 00:42:51;;;;;;;19.52;9.20;;;;;;;;;;5011003;28;20039;-78
2022/05/17 00:45:17;;;;;;;20.30;9.13;;;;;;;;;;5009595;28;20050;-78
2022/05/17 00:47:45;;;;;;;18.00;9.43;;;;;;;;;;5009455;28;20178;-78
2022/05/17 00:50:14;;;;;;;20.35;9.40;;;;;;;;;;5009999;28;20038;-79
2022/05/17 00:52:48;;;;;;;22.52;9.27;;;;;;;;;;5009889;28;20038;-78
2022/05/17 00:55:28;;;;;;;21.17;8.60;;;;;;;;;;5010151;28;20042;-78
2022/05/17 00:57:57;;;;;;;23.48;9.85;;;;;;;;;;5008511;28;20070;-78
2022/05/17 01:00:24;;;;;;;20.25;9.25;;;;;;;;;;5008773;28;20054;-78
2022/05/17 01:02:53;;;;;;;18.25;9.35;;;;;;;;;;5007889;28;20061;-78
2022/05/17 01:05:21;;;;;;;18.35;8.95;;;;;;;;;;5010184;28;20046;-79
2022/05/17 01:07:50;;;;;;;19.15;8.90;;;;;;;;;;4988609;28;20046;-76
2022/05/17 01:10:16;;;;;;;21.20;9.20;;;;;;;;;;5006726;28;20047;-77
2022/05/17 01:12:42;;;;;;;22.75;9.43;;;;;;;;;;5008529;28;20110;-78
2022/05/17 01:15:09;;;;;;;22.77;8.75;;;;;;;;;;5006987;28;20038;-78
2022/05/17 01:17:37;;;;;;;21.85;8.98;;;;;;;;;;4987478;28;20053;-77
2022/05/17 01:20:06;;;;;;;23.77;8.90;;;;;;;;;;5005423;28;20046;-77
2022/05/17 01:22:32;;;;;;;17.83;9.13;;;;;;;;;;4986347;28;20054;-77
2022/05/17 01:24:58;;;;;;;17.38;8.85;;;;;;;;;;5001333;28;20046;-78
2022/05/17 01:27:33;;;;;;;22.08;9.55;;;;;;;;;;5012946;28;20035;-77
2022/05/17 01:29:59;;;;;;;21.23;9.73;;;;;;;;;;5013296;28;20050;-78
2022/05/17 01:32:25;;;;;;;20.27;9.55;;;;;;;;;;5013744;28;20048;-77
2022/05/17 01:34:51;;;;;;;20.95;9.85;;;;;;;;;;4997300;28;20035;-78
2022/05/17 01:37:18;;;;;;;18.92;9.07;;;;;;;;;;5009959;28;20098;-78
2022/05/17 01:39:44;;;;;;;20.48;10.02;;;;;;;;;;5003014;28;20047;-78
2022/05/17 01:42:11;;;;;;;23.25;9.63;;;;;;;;;;4978562;28;20057;-78
2022/05/17 01:44:38;;;;;;;22.75;9.68;;;;;;;;;;5013957;28;20121;-78
2022/05/17 01:47:04;;;;;;;20.40;9.05;;;;;;;;;;5013593;28;20100;-78
2022/05/17 01:49:33;;;;;;;18.23;9.50;;;;;;;;;;5013875;28;20387;-77
2022/05/17 01:51:59;;;;;;;22.73;10.02;;;;;;;;;;5013397;28;20109;-78
2022/05/17 01:54:25;;;;;;;23.88;9.52;;;;;;;;;;5005738;28;20105;-77
2022/05/17 01:56:51;;;;;;;17.95;9.55;;;;;;;;;;4975680;28;20047;-78
2022/05/17 01:59:17;;;;;;;22.25;9.65;;;;;;;;;;4994431;28;20051;-78
2022/05/17 02:01:44;;;;;;;19.70;9.90;;;;;;;;;;4993827;28;20051;-78
2022/05/17 02:04:11;;;;;;;22.63;9.68;;;;;;;;;;5009103;28;20047;-77
2022/05/17 02:06:36;;;;;;;20.77;9.80;;;;;;;;;;5013377;28;20415;-78
2022/05/17 02:09:03;;;;;;;18.92;9.82;;;;;;;;;;5014203;28;20039;-78
2022/05/17 02:11:29;;;;;;;23.15;10.05;;;;;;;;;;5011786;28;20058;-78
2022/05/17 02:13:55;;;;;;;22.02;9.55;;;;;;;;;;5008028;28;20046;-76
2022/05/17 02:16:21;;;;;;;19.63;9.18;;;;;;;;;;5007530;28;20043;-77
2022/05/17 02:18:47;;;;;;;23.13;9.57;;;;;;;;;;5007271;28;20042;-78
2022/05/17 02:21:13;;;;;;;18.95;9.18;;;;;;;;;;5005740;28;20046;-77
2022/05/17 02:23:39;;;;;;;19.17;9.50;;;;;;;;;;5012634;28;20106;-77
2022/05/17 02:26:05;;;;;;;21.42;9.60;;;;;;;;;;4990103;28;20082;-76
2022/05/17 02:28:31;;;;;;;21.73;10.13;;;;;;;;;;5012929;28;20057;-78
2022/05/17 02:30:57;;;;;;;22.42;9.80;;;;;;;;;;4991920;28;20556;-77
2022/05/17 02:33:23;;;;;;;22.10;9.88;;;;;;;;;;4999979;28;20043;-77
2022/05/17 02:35:49;;;;;;;16.85;8.63;;;;;;;;;;4994231;28;20052;-77
2022/05/17 02:38:15;;;;;;;17.48;9.23;;;;;;;;;;5008992;28;20073;-77
2022/05/17 02:40:41;;;;;;;24.73;9.68;;;;;;;;;;5009616;28;20050;-77
2022/05/17 02:43:11;;;;;;;17.55;9.65;;;;;;;;;;5008889;28;20039;-77
2022/05/17 02:45:37;;;;;;;20.42;10.23;;;;;;;;;;5008506;28;20034;-77
2022/05/17 02:48:03;;;;;;;21.90;9.55;;;;;;;;;;5007344;28;20084;-77
2022/05/17 02:50:31;;;;;;;20.17;8.88;;;;;;;;;;5011813;28;20046;-78
2022/05/17 02:52:57;;;;;;;17.38;9.05;;;;;;;;;;4995214;28;20057;-77
2022/05/17 02:55:23;;;;;;;19.20;9.50;;;;;;;;;;5007560;28;20100;-77
2022/05/17 02:57:49;;;;;;;16.88;8.90;;;;;;;;;;5101320;23;20032;-72
2022/05/17 03:00:15;;;;;;;21.83;9.50;;;;;;;;;;5099308;28;20044;-72
2022/05/17 03:02:42;;;;;;;17.20;8.85;;;;;;;;;;5098750;28;20031;-72
2022/05/17 03:05:09;;;;;;;18.55;9.15;;;;;;;;;;5081002;28;20036;-72
2022/05/17 03:07:35;;;;;;;16.80;9.02;;;;;;;;;;5099283;28;20080;-72
2022/05/17 03:10:01;;;;;;;16.52;8.65;;;;;;;;;;5081837;28;20043;-72
2022/05/17 03:12:27;;;;;;;21.60;9.35;;;;;;;;;;5098935;28;20017;-72
2022/05/17 03:14:54;;;;;;;18.40;9.52;;;;;;;;;;5097985;28;20032;-72
2022/05/17 03:17:20;;;;;;;19.85;9.02;;;;;;;;;;5081678;28;20042;-72
2022/05/17 03:19:46;;;;;;;20.75;9.02;;;;;;;;;;5098580;28;20084;-72
2022/05/17 03:22:12;;;;;;;18.45;9.15;;;;;;;;;;5098756;28;20029;-72
2022/05/17 03:24:38;;;;;;;20.15;8.57;;;;;;;;;;5098372;28;20021;-72
2022/05/17 03:27:05;;;;;;;18.35;8.90;;;;;;;;;;5098584;28;20035;-72
2022/05/17 03:29:32;;;;;;;13.75;8.00;;;;;;;;;;5097571;28;20063;-72
2022/05/17 03:31:58;;;;;;;17.60;8.77;;;;;;;;;;5098612;28;20020;-72
2022/05/17 03:34:25;;;;;;;18.23;8.57;;;;;;;;;;5097478;28;20100;-72
2022/05/17 03:36:51;;;;;;;18.08;8.75;;;;;;;;;;5098677;28;20032;-72
2022/05/17 03:39:17;;;;;;;19.50;8.50;;;;;;;;;;5098634;28;20049;-72
2022/05/17 03:41:43;;;;;;;17.63;8.55;;;;;;;;;;5098585;28;20040;-71
2022/05/17 03:44:09;;;;;;;18.98;8.23;;;;;;;;;;5097680;28;20025;-72
2022/05/17 03:46:35;;;;;;;17.10;8.40;;;;;;;;;;5097507;28;20028;-73
2022/05/17 03:49:01;;;;;;;19.52;8.88;;;;;;;;;;5098570;28;20049;-72
2022/05/17 03:51:27;;;;;;;22.45;8.45;;;;;;;;;;5098443;28;20020;-72
2022/05/17 03:53:54;;;;;;;15.90;8.43;;;;;;;;;;5097473;28;20075;-72
2022/05/17 03:56:20;;;;;;;21.88;8.23;;;;;;;;;;5098181;28;20045;-72
2022/05/17 03:58:46;;;;;;;20.67;8.30;;;;;;;;;;5097784;28;20028;-72
2022/05/17 04:01:12;;;;;;;20.45;8.60;;;;;;;;;;5098422;28;20051;-73
2022/05/17 04:03:39;;;;;;;20.00;8.52;;;;;;;;;;5097702;28;20017;-72
2022/05/17 04:06:05;;;;;;;21.00;8.93;;;;;;;;;;5098347;28;20127;-72
2022/05/17 04:08:31;;;;;;;19.95;8.43;;;;;;;;;;5098281;28;20028;-72
2022/05/17 04:10:57;;;;;;;18.02;8.25;;;;;;;;;;5098293;28;20067;-72
2022/05/17 04:13:26;;;;;;;17.38;8.60;;;;;;;;;;5097011;28;20080;-72
2022/05/17 04:15:52;;;;;;;14.85;7.72;;;;;;;;;;5080820;28;20037;-71
2022/05/17 04:18:18;;;;;;;18.73;8.13;;;;;;;;;;5098158;28;20028;-72
2022/05/17 04:20:44;;;;;;;16.92;7.45;;;;;;;;;;5098067;28;20080;-72
2022/05/17 04:23:10;;;;;;;17.80;8.02;;;;;;;;;;5097630;28;20047;-72
2022/05/17 04:25:36;;;;;;;16.15;7.60;;;;;;;;;;5080829;28;20094;-72
2022/05/17 04:28:02;;;;;;;17.38;7.93;;;;;;;;;;5097432;28;20025;-72
2022/05/17 04:30:28;;;;;;;15.27;7.85;;;;;;;;;;5080544;28;20051;-72
2022/05/17 04:32:55;;;;;;;18.08;7.50;;;;;;;;;;5097451;28;20037;-72
2022/05/17 04:35:21;;;;;;;18.52;8.30;;;;;;;;;;5098020;28;20036;-72
2022/05/17 04:37:47;;;;;;;15.10;7.32;;;;;;;;;;5097942;28;20096;-73
2022/05/17 04:40:13;;;;;;;16.98;7.80;;;;;;;;;;5097819;28;20056;-72
2022/05/17 04:42:40;;;;;;;17.60;7.60;;;;;;;;;;5098016;28;20059;-72
2022/05/17 04:45:08;;;;;;;15.27;8.10;;;;;;;;;;5096707;28;20041;-72
2022/05/17 04:47:34;;;;;;;20.63;7.10;;;;;;;;;;5098027;28;20046;-72
2022/05/17 04:50:00;;;;;;;16.08;7.07;;;;;;;;;;5097739;28;20035;-72
2022/05/17 04:52:26;;;;;;;12.77;7.03;;;;;;;;;;5096032;28;20060;-72
2022/05/17 04:54:52;;;;;;;14.52;7.13;;;;;;;;;;5097484;28;20060;-72
2022/05/17 04:57:18;;;;;;;16.42;6.82;;;;;;;;;;5097414;28;20036;-72
2022/05/17 04:59:45;;;;;;;17.20;7.10;;;;;;;;;;5099390;28;20088;-72
2022/05/17 05:02:11;;;;;;;16.70;7.40;;;;;;;;;;5101466;28;20036;-72
2022/05/17 05:04:38;;;;;;;13.52;6.97;;;;;;;;;;5101015;28;20017;-72
2022/05/17 05:07:05;;;;;;;16.25;6.72;;;;;;;;;;5101231;28;20033;-72
2022/05/17 05:09:31;;;;;;;14.40;6.75;;;;;;;;;;5067695;28;20037;-72
2022/05/17 05:11:57;;;;;;;17.77;7.18;;;;;;;;;;5101396;28;20070;-72
2022/05/17 05:14:23;;;;;;;12.82;6.53;;;;;;;;;;5083472;28;20050;-72
2022/05/17 05:16:49;;;;;;;14.25;6.35;;;;;;;;;;5101177;28;20036;-72
2022/05/17 05:19:15;;;;;;;15.45;7.05;;;;;;;;;;5083692;28;20032;-72
2022/05/17 05:21:41;;;;;;;15.02;6.85;;;;;;;;;;5083221;28;20090;-73
2022/05/17 05:24:07;;;;;;;16.23;6.38;;;;;;;;;;5082415;28;20039;-71
2022/05/17 05:26:34;;;;;;;14.43;7.35;;;;;;;;;;5084244;28;20033;-72
2022/05/17 05:29:00;;;;;;;15.77;6.55;;;;;;;;;;5100569;28;20085;-73
2022/05/17 05:31:27;;;;;;;17.63;6.82;;;;;;;;;;5083450;28;20028;-72
2022/05/17 05:33:53;;;;;;;21.92;6.88;;;;;;;;;;5100364;28;20048;-72
2022/05/17 05:36:19;;;;;;;17.13;6.60;;;;;;;;;;5099947;28;20028;-72
2022/05/17 05:38:45;;;;;;;14.88;6.85;;;;;;;;;;5100961;28;20088;-72
2022/05/17 05:41:12;;;;;;;12.88;6.38;;;;;;;;;;5100833;28;20048;-72
2022/05/17 05:43:38;;;;;;;18.88;6.45;;;;;;;;;;5100159;28;20016;-72
2022/05/17 05:46:04;;;;;;;14.73;6.45;;;;;;;;;;5100857;28;20025;-72
2022/05/17 05:48:31;;;;;;;15.52;6.13;;;;;;;;;;5100781;28;20054;-71
2022/05/17 05:50:57;;;;;;;14.18;6.15;;;;;;;;;;5100281;28;20025;-73
2022/05/17 05:53:23;;;;;;;15.23;5.75;;;;;;;;;;5100035;28;20052;-72
2022/05/17 05:55:57;;;;;;;15.13;6.78;;;;;;;;;;5083090;28;20059;-72
2022/05/17 05:58:24;;;;;;;15.93;6.30;;;;;;;;;;5082927;28;20037;-73
2022/05/17 06:00:50;;;;;;;14.98;5.88;;;;;;;;;;5099969;28;20028;-74
2022/05/17 06:03:16;;;;;;;17.00;6.18;;;;;;;;;;5082512;28;20032;-73
2022/05/17 06:05:42;;;;;;;15.07;6.35;;;;;;;;;;5099392;28;20025;-73
2022/05/17 06:08:13;;;;;;;12.75;5.72;;;;;;;;;;5100504;28;20025;-73
2022/05/17 06:10:41;;;;;;;14.00;5.97;;;;;;;;;;5099990;28;20032;-73
2022/05/17 06:13:07;;;;;;;15.73;6.20;;;;;;;;;;5100040;28;20028;-73
2022/05/17 06:15:33;;;;;;;13.80;6.05;;;;;;;;;;5099253;28;20056;-71
2022/05/17 06:18:02;;;;;;;13.95;5.25;;;;;;;;;;5082996;28;20035;-72
2022/05/17 06:20:28;;;;;;;14.30;5.93;;;;;;;;;;5099652;28;20038;-73
2022/05/17 06:22:54;;;;;;;12.95;6.00;;;;;;;;;;5099584;28;20044;-74
2022/05/17 06:25:21;;;;;;;12.43;6.07;;;;;;;;;;5095459;28;20127;-74
2022/05/17 06:27:47;;;;;;;13.98;5.93;;;;;;;;;;5098779;28;20033;-75
2022/05/17 06:30:14;;;;;;;11.82;5.75;;;;;;;;;;5100120;28;20103;-75
2022/05/17 06:32:40;;;;;;;14.38;5.72;;;;;;;;;;5099738;28;20051;-75
2022/05/17 06:35:07;;;;;;;14.65;5.70;;;;;;;;;;5099425;28;20028;-75
2022/05/17 06:37:33;;;;;;;13.25;5.88;;;;;;;;;;5099755;28;20040;-76
2022/05/17 06:39:59;;;;;;;21.98;7.28;;;;;;;;;;5099764;28;20096;-75
2022/05/17 06:42:27;;;;;;;15.93;6.07;;;;;;;;;;5098886;28;20054;-75
2022/05/17 06:44:54;;;;;;;14.35;6.60;;;;;;;;;;5098895;28;20024;-76
2022/05/17 06:47:20;;;;;;;16.02;6.15;;;;;;;;;;5098931;28;20025;-74
2022/05/17 06:49:46;;;;;;;14.93;5.70;;;;;;;;;;5099686;28;20032;-75
2022/05/17 06:52:12;;;;;;;13.20;5.45;;;;;;;;;;5099088;28;20020;-74
2022/05/17 06:54:40;;;;;;;11.27;5.32;;;;;;;;;;5098518;28;20028;-75
2022/05/17 06:57:07;;;;;;;15.88;5.50;;;;;;;;;;5099183;28;20037;-75
2022/05/17 06:59:34;;;;;;;15.25;6.28;;;;;;;;;;5099462;28;20092;-74
2022/05/17 07:02:01;;;;;;;15.15;5.85;;;;;;;;;;5094772;28;20041;-75
2022/05/17 07:04:28;;;;;;;12.80;5.28;;;;;;;;;;5098948;28;20042;-74
2022/05/17 07:06:55;;;;;;;13.85;5.72;;;;;;;;;;5097657;28;20020;-74
2022/05/17 07:09:22;;;;;;;15.00;5.35;;;;;;;;;;5097539;28;20059;-79
2022/05/17 07:14:34;;;;;;;12.80;5.38;;;;;;;;;;5095367;28;20041;-77
2022/05/17 07:17:00;;;;;;;11.57;5.53;;;;;;;;;;5079486;28;20043;-74
2022/05/17 07:19:27;;;;;;;15.18;5.85;;;;;;;;;;5097701;28;20028;-73
2022/05/17 07:21:53;;;;;;;14.25;5.22;;;;;;;;;;5096736;28;20056;-75
2022/05/17 07:24:19;;;;;;;16.75;5.68;;;;;;;;;;5098460;28;20043;-73
2022/05/17 07:26:45;;;;;;;14.18;5.72;;;;;;;;;;5098018;28;20100;-74
2022/05/17 07:29:12;;;;;;;11.18;5.20;;;;;;;;;;5080699;28;20051;-74
2022/05/17 07:31:38;;;;;;;14.60;5.53;;;;;;;;;;5097249;28;20099;-74
2022/05/17 07:34:04;;;;;;;13.82;4.35;;;;;;;;;;5080625;28;20036;-74
2022/05/17 07:36:30;;;;;;;9.98;4.35;;;;;;;;;;5097623;28;20067;-73
2022/05/17 07:38:57;;;;;;;9.75;4.10;;;;;;;;;;5076549;28;20074;-73
2022/05/17 07:41:23;;;;;;;13.02;4.57;;;;;;;;;;5086853;28;20056;-77
2022/05/17 07:43:49;;;;;;;12.68;5.20;;;;;;;;;;5064282;28;20076;-78
2022/05/17 07:46:15;;;;;;;14.43;5.10;;;;;;;;;;5079516;28;20045;-76
2022/05/17 07:48:41;;;;;;;12.20;4.82;;;;;;;;;;5093410;28;20021;-77
2022/05/17 07:51:07;;;;;;;9.50;4.40;;;;;;;;;;5098080;28;20021;-79
2022/05/17 07:53:33;;;;;;;13.00;4.65;;;;;;;;;;5095662;28;20017;-83
2022/05/17 07:56:00;;;;;;;11.73;4.35;;;;;;;;;;5064581;28;20048;-81
2022/05/17 07:58:26;;;;;;;11.48;4.82;;;;;;;;;;5063716;28;20161;-80
2022/05/17 08:00:53;;;;;;;13.65;4.82;;;;;;;;;;5093367;28;20032;-78
2022/05/17 08:03:21;;;;;;;11.00;4.32;;;;;;;;;;5098042;28;20063;-78
2022/05/17 08:05:47;;;;;;;10.75;4.53;;;;;;;;;;5078320;28;20052;-77
2022/05/17 08:08:13;;;;;;;12.80;4.63;;;;;;;;;;5094286;28;20025;-78
2022/05/17 08:10:40;;;;;;;12.13;4.97;;;;;;;;;;5080950;28;20048;-78
2022/05/17 08:13:07;;;;;;;11.77;4.75;;;;;;;;;;5091083;28;20036;-78
2022/05/17 08:15:33;;;;;;;14.90;5.00;;;;;;;;;;5096164;28;20037;-78
2022/05/17 08:18:01;;;;;;;10.68;4.30;;;;;;;;;;5091487;28;20080;-78
2022/05/17 08:20:27;;;;;;;12.35;4.97;;;;;;;;;;5079735;28;20064;-78
2022/05/17 08:22:54;;;;;;;11.20;4.32;;;;;;;;;;5088311;28;20054;-82
2022/05/17 08:28:07;;;;;;;11.98;4.97;;;;;;;;;;5100069;28;20089;-78
2022/05/17 08:30:33;;;;;;;14.65;4.70;;;;;;;;;;5096778;28;20013;-78
2022/05/17 08:33:16;;;;;;;11.40;4.90;;;;;;;;;;5088165;28;20051;-77
2022/05/17 08:35:42;;;;;;;10.57;4.43;;;;;;;;;;5064980;28;20048;-80
2022/05/17 09:15:15;;;;;;;9.70;4.30;;;;;;;;;;5079209;28;20620;-77
2022/05/17 09:17:41;;;;;;;11.23;4.85;;;;;;;;;;5076939;28;20041;-76
2022/05/17 09:20:09;;;;;;;10.05;5.03;;;;;;;;;;5071553;27;20050;-76
2022/05/17 09:22:36;;;;;;;11.52;4.35;;;;;;;;;;5061387;28;20044;-76
2022/05/17 09:25:12;;;;;;;10.50;5.38;;;;;;;;;;5051807;28;20029;-75
2022/05/17 09:27:39;;;;;;;11.75;4.85;;;;;;;;;;5052189;28;20105;-77
2022/05/17 09:30:08;;;;;;;10.85;4.65;;;;;;;;;;5049230;28;20050;-81
2022/05/17 09:32:37;;;;;;;10.98;4.65;;;;;;;;;;5049079;28;20046;-79
2022/05/17 09:35:24;;;;;;;8.45;4.03;;;;;;;;;;5049287;28;20033;-82
2022/05/17 09:37:51;;;;;;;8.77;3.80;;;;;;;;;;5070951;27;20085;-75
2022/05/17 09:40:25;;;;;;;10.82;4.40;;;;;;;;;;5065833;27;20097;-75
2022/05/17 09:42:58;;;;;;;8.35;4.47;;;;;;;;;;5067459;28;20037;-76
2022/05/17 09:45:42;;;;;;;10.38;3.88;;;;;;;;;;5071343;28;20052;-75
2022/05/17 09:48:11;;;;;;;10.07;3.80;;;;;;;;;;5067067;28;20093;-80
2022/05/17 09:53:46;;;;;;;8.57;4.35;;;;;;;;;;5066067;27;20049;-78
2022/05/17 09:56:13;;;;;;;12.00;4.20;;;;;;;;;;5071336;27;20036;-77
2022/05/17 09:58:41;;;;;;;9.60;3.30;;;;;;;;;;5067400;27;20066;-76
2022/05/17 10:01:17;;;;;;;9.18;3.88;;;;;;;;;;5058830;27;20085;-76
2022/05/17 10:03:58;;;;;;;10.70;4.00;;;;;;;;;;5056495;28;20029;-75
2022/05/17 10:06:35;;;;;;;8.25;4.05;;;;;;;;;;5052155;28;20042;-75
2022/05/17 10:09:03;;;;;;;10.80;4.40;;;;;;;;;;5052103;28;20034;-76
2022/05/17 10:11:40;;;;;;;12.32;4.30;;;;;;;;;;5051284;28;20067;-75
2022/05/17 10:14:09;;;;;;;9.13;3.83;;;;;;;;;;5052212;28;20045;-75
2022/05/17 10:16:41;;;;;;;7.90;3.47;;;;;;;;;;5047833;28;20105;-75
2022/05/17 10:19:17;;;;;;;9.20;4.07;;;;;;;;;;5051531;28;20056;-76
2022/05/17 10:21:49;;;;;;;8.23;3.58;;;;;;;;;;5037655;28;20056;-78
2022/05/17 10:24:21;;;;;;;12.52;4.00;;;;;;;;;;5047438;28;20030;-78
2022/05/17 10:26:52;;;;;;;8.38;3.40;;;;;;;;;;5037222;28;20034;-76
2022/05/17 10:29:39;;;;;;;9.85;3.60;;;;;;;;;;5043289;28;20038;-76
2022/05/17 10:32:08;;;;;;;9.23;3.90;;;;;;;;;;5056795;28;20059;-75
2022/05/17 10:34:43;;;;;;;10.38;3.28;;;;;;;;;;5037546;28;20074;-75
2022/05/17 10:37:14;;;;;;;8.85;3.78;;;;;;;;;;5040061;28;20025;-76
2022/05/17 10:39:45;;;;;;;7.22;3.13;;;;;;;;;;5037966;28;20018;-76
2022/05/17 10:42:11;;;;;;;8.82;3.90;;;;;;;;;;5037391;28;20032;-75
2022/05/17 10:44:40;;;;;;;10.35;3.88;;;;;;;;;;5037477;28;20030;-76
2022/05/17 10:47:21;;;;;;;8.55;3.53;;;;;;;;;;5037590;28;20042;-75
2022/05/17 10:50:09;;;;;;;9.85;3.58;;;;;;;;;;5047234;28;20033;-76
2022/05/17 10:52:45;;;;;;;10.55;3.80;;;;;;;;;;5055583;28;20081;-75
2022/05/17 10:55:21;;;;;;;11.13;4.35;;;;;;;;;;5056524;28;20049;-76
2022/05/17 10:57:59;;;;;;;12.57;4.10;;;;;;;;;;5057121;28;20046;-76
2022/05/17 11:00:38;;;;;;;9.55;4.28;;;;;;;;;;5038901;28;20041;-77
2022/05/17 11:03:12;;;;;;;10.10;4.70;;;;;;;;;;5055246;28;20044;-76
2022/05/17 11:05:56;;;;;;;8.48;4.18;;;;;;;;;;5057050;28;20033;-75
2022/05/17 11:08:43;;;;;;;9.52;4.15;;;;;;;;;;5056394;28;20040;-75
2022/05/17 11:11:28;;;;;;;9.75;4.43;;;;;;;;;;5053891;28;20040;-75
2022/05/17 11:14:03;;;;;;;11.98;4.70;;;;;;;;;;5055318;28;20056;-75
2022/05/17 11:16:37;;;;;;;10.27;4.50;;;;;;;;;;5055315;28;20029;-77
2022/05/17 11:19:06;;;;;;;13.88;4.55;;;;;;;;;;5055733;28;20053;-76
2022/05/17 11:21:43;;;;;;;12.40;4.80;;;;;;;;;;5056747;28;20027;-75
2022/05/17 11:24:23;;;;;;;12.10;4.68;;;;;;;;;;5055303;28;20033;-76
2022/05/17 11:27:01;;;;;;;10.05;5.43;;;;;;;;;;5055668;28;20033;-75
2022/05/17 11:29:39;;;;;;;12.02;5.10;;;;;;;;;;5053322;28;20029;-76
2022/05/17 11:32:24;;;;;;;11.85;4.93;;;;;;;;;;5056677;28;20042;-75
2022/05/17 11:34:53;;;;;;;11.70;5.07;;;;;;;;;;5055313;28;20042;-75
2022/05/17 11:37:36;;;;;;;10.82;4.05;;;;;;;;;;5056579;28;20041;-75
2022/05/17 11:40:04;;;;;;;14.07;4.75;;;;;;;;;;5054649;28;20060;-76
2022/05/17 11:42:31;;;;;;;12.90;4.55;;;;;;;;;;5055982;28;20055;-76
2022/05/17 11:45:17;;;;;;;12.80;4.82;;;;;;;;;;5056266;28;20038;-76
2022/05/17 11:47:43;;;;;;;11.73;4.75;;;;;;;;;;5055952;28;20051;-77
2022/05/17 11:50:15;;;;;;;13.02;4.32;;;;;;;;;;5055281;28;20038;-77
2022/05/17 11:52:42;;;;;;;10.73;4.43;;;;;;;;;;5055385;28;20036;-76
2022/05/17 11:55:10;;;;;;;11.70;4.80;;;;;;;;;;5044500;28;20074;-76
2022/05/17 11:57:38;;;;;;;12.00;4.78;;;;;;;;;;5036462;28;20026;-76
2022/05/17 12:00:08;;;;;;;14.30;4.05;;;;;;;;;;5045495;28;20085;-77
2022/05/17 12:02:46;;;;;;;11.88;4.28;;;;;;;;;;5054705;28;20041;-77
2022/05/17 12:05:13;;;;;;;11.57;4.53;;;;;;;;;;5054374;28;20030;-79
2022/05/17 12:07:40;;;;;;;10.60;4.18;;;;;;;;;;5040256;28;20030;-76
2022/05/17 12:10:14;;;;;;;10.90;3.78;;;;;;;;;;5053844;28;20044;-75
2022/05/17 12:12:43;;;;;;;8.55;3.35;;;;;;;;;;5054302;28;20036;-76
2022/05/17 12:15:12;;;;;;;10.27;3.60;;;;;;;;;;5055106;28;20097;-76
2022/05/17 12:17:46;;;;;;;13.05;4.15;;;;;;;;;;5037877;28;20058;-75
2022/05/17 12:20:12;;;;;;;9.85;3.58;;;;;;;;;;5010867;28;20099;-76
2022/05/17 12:22:48;;;;;;;11.13;4.13;;;;;;;;;;5009379;28;20027;-76
2022/05/17 12:25:17;;;;;;;10.98;3.97;;;;;;;;;;5016378;28;20071;-76
2022/05/17 12:27:45;;;;;;;9.25;3.65;;;;;;;;;;5016290;28;20053;-76
2022/05/17 12:33:07;;;;;;;7.95;3.42;;;;;;;;;;5008157;28;20042;-76
2022/05/17 12:35:35;;;;;;;10.43;3.35;;;;;;;;;;5016261;28;20085;-76
2022/05/17 12:38:01;;;;;;;10.88;3.40;;;;;;;;;;5014786;28;20044;-76
2022/05/17 12:43:23;;;;;;;9.02;3.50;;;;;;;;;;5013572;28;20118;-76
2022/05/17 12:45:49;;;;;;;9.10;3.17;;;;;;;;;;5016172;28;20037;-75
2022/05/17 12:48:17;;;;;;;9.57;3.30;;;;;;;;;;5013614;28;20043;-75
2022/05/17 12:50:46;;;;;;;7.90;2.75;;;;;;;;;;5013897;28;20023;-76
2022/05/17 12:53:29;;;;;;;9.38;2.83;;;;;;;;;;4997766;28;20052;-76
2022/05/17 12:56:06;;;;;;;8.65;3.55;;;;;;;;;;5004913;28;20042;-77
2022/05/17 12:58:52;;;;;;;9.02;3.40;;;;;;;;;;4996523;28;20158;-76
2022/05/17 13:01:25;;;;;;;9.02;3.30;;;;;;;;;;5006091;28;20058;-76
2022/05/17 13:03:54;;;;;;;10.75;3.42;;;;;;;;;;5005828;28;20043;-76
2022/05/17 13:06:20;;;;;;;7.97;3.15;;;;;;;;;;5003610;28;20018;-76
2022/05/17 13:08:46;;;;;;;11.32;3.40;;;;;;;;;;5015253;28;20045;-75
2022/05/17 13:11:13;;;;;;;6.90;3.15;;;;;;;;;;4998433;28;20058;-76
2022/05/17 13:13:41;;;;;;;8.68;2.83;;;;;;;;;;4995451;28;20051;-77
2022/05/17 13:16:12;;;;;;;6.22;3.05;;;;;;;;;;4997503;28;20073;-77
2022/05/17 13:18:40;;;;;;;6.35;2.70;;;;;;;;;;5007622;28;20048;-77
2022/05/17 13:21:10;;;;;;;8.10;3.03;;;;;;;;;;5005775;28;20033;-76
2022/05/17 13:23:36;;;;;;;9.18;2.97;;;;;;;;;;5015491;28;20066;-76
2022/05/17 13:26:06;;;;;;;6.40;3.10;;;;;;;;;;4998159;28;20062;-77
2022/05/17 13:28:33;;;;;;;9.48;3.55;;;;;;;;;;4995951;28;20042;-76
2022/05/17 13:31:15;;;;;;;7.45;3.30;;;;;;;;;;4994618;28;20053;-77
2022/05/17 13:33:45;;;;;;;8.88;3.30;;;;;;;;;;4996061;28;20034;-76
2022/05/17 13:36:12;;;;;;;8.27;3.20;;;;;;;;;;4997571;28;20027;-76
2022/05/17 13:38:39;;;;;;;9.52;3.28;;;;;;;;;;5014707;28;20026;-76
2022/05/17 13:41:24;;;;;;;10.70;4.78;;;;;;;;;;5020935;28;20039;-77
2022/05/17 13:43:55;;;;;;;8.15;3.80;;;;;;;;;;4995289;28;20067;-76
2022/05/17 13:46:28;;;;;;;9.43;3.33;;;;;;;;;;5001134;28;20041;-77
2022/05/17 13:48:59;;;;;;;7.68;3.72;;;;;;;;;;5001905;28;20056;-76
2022/05/17 13:51:28;;;;;;;8.70;4.10;;;;;;;;;;5009718;28;20086;-76
2022/05/17 13:54:15;;;;;;;11.15;4.53;;;;;;;;;;5003186;28;20076;-76
2022/05/17 13:56:49;;;;;;;10.43;4.20;;;;;;;;;;5008549;28;20054;-76
2022/05/17 13:59:16;;;;;;;7.80;3.80;;;;;;;;;;5018119;28;20053;-76
2022/05/17 14:01:53;;;;;;;9.48;3.67;;;;;;;;;;5002456;28;20090;-77
2022/05/17 14:04:32;;;;;;;7.22;3.47;;;;;;;;;;5014224;28;20042;-76
2022/05/17 14:07:00;;;;;;;9.95;3.60;;;;;;;;;;5017434;28;20038;-77
2022/05/17 14:12:20;;;;;;;8.60;3.38;;;;;;;;;;4999111;28;20047;-77
2022/05/17 14:14:47;;;;;;;9.73;3.83;;;;;;;;;;5118758;28;20044;-76
2022/05/17 14:17:17;;;;;;;9.50;3.85;;;;;;;;;;5036312;28;20046;-76
2022/05/17 14:19:45;;;;;;;8.98;4.60;;;;;;;;;;5004789;28;20033;-76
2022/05/17 14:22:13;;;;;;;11.30;4.50;;;;;;;;;;5000481;28;20034;-76
2022/05/17 14:24:39;;;;;;;11.38;4.05;;;;;;;;;;4998029;28;20039;-77
2022/05/17 14:27:05;;;;;;;11.50;3.92;;;;;;;;;;4997682;28;20037;-76
2022/05/17 14:29:34;;;;;;;9.52;4.63;;;;;;;;;;5009935;28;20035;-76
2022/05/17 14:32:01;;;;;;;11.32;4.65;;;;;;;;;;5000877;28;20031;-76
2022/05/17 14:34:27;;;;;;;7.72;4.25;;;;;;;;;;4998418;28;20048;-76
2022/05/17 14:36:54;;;;;;;8.70;3.78;;;;;;;;;;4997997;28;20042;-76
2022/05/17 14:39:20;;;;;;;10.00;4.50;;;;;;;;;;4998389;28;20050;-76
2022/05/17 14:41:48;;;;;;;10.35;3.90;;;;;;;;;;5007545;28;20064;-76
2022/05/17 14:44:15;;;;;;;10.00;4.50;;;;;;;;;;5017716;28;20038;-76
2022/05/17 14:46:41;;;;;;;9.88;3.90;;;;;;;;;;5003544;28;20049;-76
2022/05/17 14:49:07;;;;;;;9.68;3.72;;;;;;;;;;5006950;28;20027;-77
2022/05/17 14:51:34;;;;;;;12.25;3.83;;;;;;;;;;5016919;28;20033;-76
2022/05/17 14:54:00;;;;;;;11.30;3.90;;;;;;;;;;5017563;28;20026;-76
2022/05/17 14:56:26;;;;;;;11.18;3.80;;;;;;;;;;5010699;28;20023;-76
2022/05/17 14:58:52;;;;;;;7.03;3.30;;;;;;;;;;4997917;28;20077;-76
2022/05/17 15:01:20;;;;;;;10.55;3.33;;;;;;;;;;4998902;28;20031;-76
2022/05/17 15:03:49;;;;;;;9.85;3.60;;;;;;;;;;5010419;28;20061;-81
2022/05/17 15:06:15;;;;;;;7.82;3.42;;;;;;;;;;5018411;28;20094;-76
2022/05/17 15:08:45;;;;;;;9.38;3.03;;;;;;;;;;5004459;28;20047;-76
2022/05/17 15:11:12;;;;;;;7.70;3.13;;;;;;;;;;5029685;28;20047;-76
2022/05/17 15:13:40;;;;;;;7.45;3.05;;;;;;;;;;5004850;28;20131;-77
2022/05/17 15:16:08;;;;;;;7.03;2.90;;;;;;;;;;5005285;28;20026;-82
2022/05/17 15:18:37;;;;;;;7.35;2.75;;;;;;;;;;4997509;28;20106;-77
2022/05/17 15:21:03;;;;;;;8.52;2.95;;;;;;;;;;5000953;28;20055;-77
2022/05/17 15:23:32;;;;;;;10.13;3.50;;;;;;;;;;4996899;28;20030;-76
2022/05/17 15:25:58;;;;;;;5.57;2.65;;;;;;;;;;4997341;28;20035;-77
2022/05/17 15:28:24;;;;;;;6.75;2.72;;;;;;;;;;5013360;28;20034;-76
2022/05/17 15:30:50;;;;;;;7.25;2.92;;;;;;;;;;5006693;28;20032;-76
2022/05/17 15:33:16;;;;;;;5.82;2.50;;;;;;;;;;5013215;28;20058;-76
2022/05/17 15:35:42;;;;;;;6.85;2.53;;;;;;;;;;4997091;28;20033;-76